Quaker, Kansas
Current Conditions -  °F | °C
As of 1:35 PM on Thursday 23 Oct 2014 (Local Time) from KPTS Reporting Station
Overcast Overcast  
Wind Chill: 62°   Ceiling: 3300
Heat Index: 62°   Visibility: 10mi
Dew Point: 60°   Wind: 12mph
Humidity: 94%   Direction: 230°SW
Pressure: 30.12"   Gusts: NA
Location:  37.1637°N, 94.898°W
Report Text: KPTS 231835Z AUTO 23010KT 10SM SCT009 BKN033 OVC050 17/16 A3012 RMK AO2 T01670158
Loading
Personal Weather Stations






























Interactive Weather Map
Tropical Storm Tracking
New forecast layout! Learn more

10-Day Weather Forecast

Advertisements
Track Severe Weather on mobile